sensor_id;sensor_type;location;lat;lon;timestamp;pressure;altitude;pressure_sealevel;temperature;humidity
52361;BME280;38294;42.966;1.608;2023-03-21T03:37:49;97216.16;;;5.92;79.84
52361;BME280;38294;42.966;1.608;2023-03-21T03:40:26;97225.13;;;6.13;79.13
52361;BME280;38294;42.966;1.608;2023-03-21T03:42:57;97223.81;;;6.19;78.26
52361;BME280;38294;42.966;1.608;2023-03-21T03:45:29;97222.13;;;6.27;77.91
52361;BME280;38294;42.966;1.608;2023-03-21T03:48:03;97225.59;;;6.15;77.98
52361;BME280;38294;42.966;1.608;2023-03-21T03:53:15;97232.06;;;6.52;76.93
52361;BME280;38294;42.966;1.608;2023-03-21T03:55:45;97223.22;;;6.55;75.41
52361;BME280;38294;42.966;1.608;2023-03-21T03:58:11;97235.09;;;6.51;74.54
52361;BME280;38294;42.966;1.608;2023-03-21T04:00:37;97235.69;;;6.56;73.31
52361;BME280;38294;42.966;1.608;2023-03-21T04:03:03;97232.03;;;6.31;74.20
52361;BME280;38294;42.966;1.608;2023-03-21T04:05:31;97239.78;;;6.21;75.66
52361;BME280;38294;42.966;1.608;2023-03-21T04:07:57;97242.25;;;6.14;75.47
52361;BME280;38294;42.966;1.608;2023-03-21T04:10:23;97242.25;;;6.14;75.15
52361;BME280;38294;42.966;1.608;2023-03-21T04:12:48;97239.41;;;6.10;75.39
52361;BME280;38294;42.966;1.608;2023-03-21T04:15:14;97245.72;;;5.85;75.46
52361;BME280;38294;42.966;1.608;2023-03-21T04:17:40;97247.56;;;6.10;75.32
52361;BME280;38294;42.966;1.608;2023-03-21T04:20:06;97248.63;;;6.39;74.23
52361;BME280;38294;42.966;1.608;2023-03-21T04:22:35;97255.34;;;6.41;73.00
52361;BME280;38294;42.966;1.608;2023-03-21T04:25:00;97252.28;;;6.43;73.20
52361;BME280;38294;42.966;1.608;2023-03-21T04:27:27;97254.00;;;6.47;73.23
52361;BME280;38294;42.966;1.608;2023-03-21T04:29:52;97257.97;;;6.50;73.19
52361;BME280;38294;42.966;1.608;2023-03-21T04:32:18;97260.25;;;6.48;73.15
52361;BME280;38294;42.966;1.608;2023-03-21T04:34:48;97254.59;;;6.53;72.47
52361;BME280;38294;42.966;1.608;2023-03-21T04:37:22;97258.06;;;6.62;72.45
52361;BME280;38294;42.966;1.608;2023-03-21T04:39:49;97257.53;;;6.48;72.90
52361;BME280;38294;42.966;1.608;2023-03-21T04:42:16;97259.00;;;6.45;72.75
52361;BME280;38294;42.966;1.608;2023-03-21T04:44:45;97258.56;;;6.14;73.90
52361;BME280;38294;42.966;1.608;2023-03-21T04:47:11;97261.25;;;5.85;75.11
52361;BME280;38294;42.966;1.608;2023-03-21T04:49:38;97250.13;;;5.69;75.97
52361;BME280;38294;42.966;1.608;2023-03-21T04:52:04;97263.66;;;5.86;76.14
52361;BME280;38294;42.966;1.608;2023-03-21T04:54:30;97254.19;;;5.92;75.54
52361;BME280;38294;42.966;1.608;2023-03-21T04:56:57;97258.88;;;6.12;74.54
52361;BME280;38294;42.966;1.608;2023-03-21T04:59:23;97252.13;;;6.18;73.81
52361;BME280;38294;42.966;1.608;2023-03-21T05:01:49;97258.38;;;6.19;73.56
52361;BME280;38294;42.966;1.608;2023-03-21T05:04:15;97257.41;;;6.23;73.82
52361;BME280;38294;42.966;1.608;2023-03-21T05:06:41;97248.88;;;6.25;73.02
52361;BME280;38294;42.966;1.608;2023-03-21T05:09:07;97254.66;;;6.23;73.20
52361;BME280;38294;42.966;1.608;2023-03-21T05:11:35;97259.75;;;6.25;73.86
52361;BME280;38294;42.966;1.608;2023-03-21T05:14:06;97255.94;;;6.26;74.74
52361;BME280;38294;42.966;1.608;2023-03-21T05:16:33;97266.38;;;6.15;74.24
52361;BME280;38294;42.966;1.608;2023-03-21T05:19:01;97260.72;;;6.29;73.27
52361;BME280;38294;42.966;1.608;2023-03-21T05:21:31;97266.41;;;6.36;73.09
52361;BME280;38294;42.966;1.608;2023-03-21T05:24:08;97266.47;;;6.27;72.75
52361;BME280;38294;42.966;1.608;2023-03-21T05:26:39;97270.56;;;6.13;71.90
52361;BME280;38294;42.966;1.608;2023-03-21T05:29:06;97279.69;;;6.38;71.35
52361;BME280;38294;42.966;1.608;2023-03-21T05:31:32;97278.72;;;6.13;72.26
52361;BME280;38294;42.966;1.608;2023-03-21T05:33:58;97275.88;;;6.09;72.49
52361;BME280;38294;42.966;1.608;2023-03-21T05:36:23;97276.75;;;6.22;72.06
52361;BME280;38294;42.966;1.608;2023-03-21T05:38:49;97282.75;;;6.07;73.23
52361;BME280;38294;42.966;1.608;2023-03-21T05:41:16;97286.88;;;6.13;73.33
52361;BME280;38294;42.966;1.608;2023-03-21T05:43:42;97296.72;;;5.97;73.91
52361;BME280;38294;42.966;1.608;2023-03-21T05:46:08;97290.72;;;5.74;74.57
52361;BME280;38294;42.966;1.608;2023-03-21T05:48:35;97296.59;;;5.93;74.42
52361;BME280;38294;42.966;1.608;2023-03-21T05:51:01;97292.84;;;6.06;74.11
52361;BME280;38294;42.966;1.608;2023-03-21T05:53:26;97303.72;;;6.06;73.81
52361;BME280;38294;42.966;1.608;2023-03-21T05:55:52;97301.13;;;6.10;73.41
52361;BME280;38294;42.966;1.608;2023-03-21T05:58:17;97310.56;;;6.12;73.44
52361;BME280;38294;42.966;1.608;2023-03-21T06:00:43;97318.78;;;5.95;74.31
52361;BME280;38294;42.966;1.608;2023-03-21T06:03:09;97316.88;;;5.96;74.08
52361;BME280;38294;42.966;1.608;2023-03-21T06:05:35;97324.22;;;5.95;73.40
52361;BME280;38294;42.966;1.608;2023-03-21T06:08:00;97321.59;;;6.16;72.86
52361;BME280;38294;42.966;1.608;2023-03-21T06:10:26;97334.56;;;6.10;72.86
52361;BME280;38294;42.966;1.608;2023-03-21T06:12:51;97346.19;;;6.19;72.35
52361;BME280;38294;42.966;1.608;2023-03-21T06:15:17;97350.91;;;6.40;71.89
52361;BME280;38294;42.966;1.608;2023-03-21T06:17:43;97341.06;;;6.47;71.38
52361;BME280;38294;42.966;1.608;2023-03-21T06:20:09;97338.66;;;6.75;70.79
52361;BME280;38294;42.966;1.608;2023-03-21T06:22:36;97341.56;;;6.70;70.54
52361;BME280;38294;42.966;1.608;2023-03-21T06:25:03;97341.22;;;6.92;70.32
52361;BME280;38294;42.966;1.608;2023-03-21T06:27:29;97351.47;;;6.95;69.78
52361;BME280;38294;42.966;1.608;2023-03-21T06:29:54;97360.56;;;6.99;69.14
52361;BME280;38294;42.966;1.608;2023-03-21T06:32:22;97358.59;;;6.88;70.42
52361;BME280;38294;42.966;1.608;2023-03-21T06:34:48;97364.41;;;6.98;69.26
52361;BME280;38294;42.966;1.608;2023-03-21T06:37:13;97362.84;;;6.97;69.24
52361;BME280;38294;42.966;1.608;2023-03-21T06:39:39;97374.84;;;7.17;68.74
52361;BME280;38294;42.966;1.608;2023-03-21T06:42:05;97368.00;;;7.11;69.37
52361;BME280;38294;42.966;1.608;2023-03-21T06:44:30;97370.97;;;7.18;69.17
52361;BME280;38294;42.966;1.608;2023-03-21T06:46:56;97371.72;;;7.06;69.32
52361;BME280;38294;42.966;1.608;2023-03-21T06:49:21;97374.38;;;7.15;68.83
52361;BME280;38294;42.966;1.608;2023-03-21T06:51:47;97364.41;;;6.98;69.17
52361;BME280;38294;42.966;1.608;2023-03-21T06:54:12;97365.16;;;7.07;69.77
52361;BME280;38294;42.966;1.608;2023-03-21T06:56:42;97367.53;;;7.29;69.18
52361;BME280;38294;42.966;1.608;2023-03-21T06:59:07;97371.72;;;7.27;68.94
52361;BME280;38294;42.966;1.608;2023-03-21T07:01:33;97371.13;;;7.54;68.18
52361;BME280;38294;42.966;1.608;2023-03-21T07:03:59;97369.81;;;7.72;67.83
52361;BME280;38294;42.966;1.608;2023-03-21T07:06:25;97370.72;;;7.64;68.46
52361;BME280;38294;42.966;1.608;2023-03-21T07:08:51;97363.50;;;8.05;68.64
52361;BME280;38294;42.966;1.608;2023-03-21T07:11:17;97369.59;;;8.34;68.17
52361;BME280;38294;42.966;1.608;2023-03-21T07:13:43;97370.72;;;8.58;67.07
52361;BME280;38294;42.966;1.608;2023-03-21T07:16:09;97373.34;;;8.78;66.30
52361;BME280;38294;42.966;1.608;2023-03-21T07:18:34;97378.41;;;8.92;65.89
52361;BME280;38294;42.966;1.608;2023-03-21T07:21:00;97377.59;;;9.04;65.99
52361;BME280;38294;42.966;1.608;2023-03-21T07:23:26;97376.66;;;9.24;65.91
52361;BME280;38294;42.966;1.608;2023-03-21T07:25:52;97367.91;;;9.46;65.13
52361;BME280;38294;42.966;1.608;2023-03-21T07:28:19;97368.78;;;9.22;64.92
52361;BME280;38294;42.966;1.608;2023-03-21T07:30:50;97372.31;;;9.23;66.07
52361;BME280;38294;42.966;1.608;2023-03-21T07:33:16;97372.09;;;9.43;65.26
52361;BME280;38294;42.966;1.608;2023-03-21T07:35:41;97372.63;;;9.61;63.72
52361;BME280;38294;42.966;1.608;2023-03-21T07:38:07;97370.09;;;9.84;63.32
52361;BME280;38294;42.966;1.608;2023-03-21T07:40:32;97372.41;;;9.97;62.64
52361;BME280;38294;42.966;1.608;2023-03-21T07:42:58;97376.44;;;10.16;61.80
52361;BME280;38294;42.966;1.608;2023-03-21T07:45:23;97373.34;;;10.33;61.33
52361;BME280;38294;42.966;1.608;2023-03-21T07:47:51;97369.56;;;10.88;58.38
52361;BME280;38294;42.966;1.608;2023-03-21T07:50:17;97366.28;;;10.98;58.48
52361;BME280;38294;42.966;1.608;2023-03-21T07:52:42;97366.53;;;10.93;59.32
52361;BME280;38294;42.966;1.608;2023-03-21T07:55:08;97368.97;;;11.14;59.29
52361;BME280;38294;42.966;1.608;2023-03-21T07:57:34;97379.28;;;11.20;58.64
52361;BME280;38294;42.966;1.608;2023-03-21T08:00:01;97373.47;;;11.79;56.53
52361;BME280;38294;42.966;1.608;2023-03-21T08:02:27;97377.44;;;11.82;54.88
52361;BME280;38294;42.966;1.608;2023-03-21T08:04:53;97383.63;;;11.59;55.08
52361;BME280;38294;42.966;1.608;2023-03-21T08:07:18;97378.25;;;11.67;54.45
52361;BME280;38294;42.966;1.608;2023-03-21T08:09:44;97383.19;;;11.77;54.41
52361;BME280;38294;42.966;1.608;2023-03-21T08:12:10;97384.09;;;12.03;54.80
52361;BME280;38294;42.966;1.608;2023-03-21T08:14:35;97387.72;;;12.30;53.74
52361;BME280;38294;42.966;1.608;2023-03-21T08:17:02;97389.66;;;12.52;52.58
52361;BME280;38294;42.966;1.608;2023-03-21T08:19:27;97392.44;;;12.79;52.65
52361;BME280;38294;42.966;1.608;2023-03-21T08:21:53;97391.94;;;12.99;51.82
52361;BME280;38294;42.966;1.608;2023-03-21T08:24:18;97391.41;;;13.13;51.24
52361;BME280;38294;42.966;1.608;2023-03-21T08:26:44;97384.94;;;13.02;50.57
52361;BME280;38294;42.966;1.608;2023-03-21T08:29:11;97389.03;;;13.41;50.87
52361;BME280;38294;42.966;1.608;2023-03-21T08:31:39;97396.00;;;13.65;50.67
52361;BME280;38294;42.966;1.608;2023-03-21T08:34:05;97390.41;;;13.58;49.87
52361;BME280;38294;42.966;1.608;2023-03-21T08:36:32;97401.03;;;13.89;49.65
52361;BME280;38294;42.966;1.608;2023-03-21T08:38:58;97400.69;;;13.94;49.34
52361;BME280;38294;42.966;1.608;2023-03-21T08:41:33;97404.41;;;14.12;48.89
52361;BME280;38294;42.966;1.608;2023-03-21T08:43:59;97415.47;;;14.16;49.24
52361;BME280;38294;42.966;1.608;2023-03-21T08:46:25;97416.13;;;14.39;47.62
52361;BME280;38294;42.966;1.608;2023-03-21T08:48:51;97402.50;;;14.53;47.83
52361;BME280;38294;42.966;1.608;2023-03-21T08:51:17;97400.72;;;14.79;47.59
52361;BME280;38294;42.966;1.608;2023-03-21T08:53:42;97409.84;;;14.90;46.72
52361;BME280;38294;42.966;1.608;2023-03-21T08:56:09;97399.31;;;14.99;46.01
52361;BME280;38294;42.966;1.608;2023-03-21T08:58:35;97398.31;;;15.35;45.37
52361;BME280;38294;42.966;1.608;2023-03-21T09:01:02;97402.22;;;15.27;45.14
52361;BME280;38294;42.966;1.608;2023-03-21T09:03:28;97401.81;;;15.25;45.10
52361;BME280;38294;42.966;1.608;2023-03-21T09:05:55;97403.97;;;15.49;44.24
52361;BME280;38294;42.966;1.608;2023-03-21T09:08:21;97397.75;;;15.66;44.52
52361;BME280;38294;42.966;1.608;2023-03-21T09:10:53;97396.09;;;15.58;44.43
52361;BME280;38294;42.966;1.608;2023-03-21T09:13:20;97398.25;;;15.17;45.67
52361;BME280;38294;42.966;1.608;2023-03-21T09:15:45;97398.84;;;15.51;45.16
52361;BME280;38294;42.966;1.608;2023-03-21T09:18:11;97409.53;;;15.56;44.84
52361;BME280;38294;42.966;1.608;2023-03-21T09:20:44;97396.66;;;15.96;44.53
52361;BME280;38294;42.966;1.608;2023-03-21T09:23:11;97390.00;;;16.18;44.22
52361;BME280;38294;42.966;1.608;2023-03-21T09:25:39;97391.97;;;16.21;44.02
52361;BME280;38294;42.966;1.608;2023-03-21T09:28:05;97386.13;;;16.61;43.56
52361;BME280;38294;42.966;1.608;2023-03-21T09:30:32;97382.16;;;16.91;42.68
52361;BME280;38294;42.966;1.608;2023-03-21T09:33:00;97380.56;;;17.04;42.79
52361;BME280;38294;42.966;1.608;2023-03-21T09:35:26;97382.97;;;16.63;43.40
52361;BME280;38294;42.966;1.608;2023-03-21T09:37:53;97388.81;;;16.19;44.39
52361;BME280;38294;42.966;1.608;2023-03-21T09:40:43;97380.56;;;16.40;44.34
52361;BME280;38294;42.966;1.608;2023-03-21T09:44:24;97382.13;;;16.31;44.66
52361;BME280;38294;42.966;1.608;2023-03-21T09:46:30;97373.50;;;16.57;44.57
52361;BME280;38294;42.966;1.608;2023-03-21T09:49:05;97373.88;;;16.84;44.23
52361;BME280;38294;42.966;1.608;2023-03-21T09:51:39;97378.16;;;17.23;43.72
52361;BME280;38294;42.966;1.608;2023-03-21T09:54:25;97372.63;;;17.16;43.58
52361;BME280;38294;42.966;1.608;2023-03-21T09:56:54;97373.34;;;17.42;43.43
52361;BME280;38294;42.966;1.608;2023-03-21T09:59:38;97364.81;;;16.72;45.27
52361;BME280;38294;42.966;1.608;2023-03-21T10:02:30;97374.56;;;17.37;44.49
52361;BME280;38294;42.966;1.608;2023-03-21T10:05:02;97363.97;;;17.07;44.89
52361;BME280;38294;42.966;1.608;2023-03-21T10:07:39;97357.63;;;17.17;45.63
52361;BME280;38294;42.966;1.608;2023-03-21T10:10:14;97350.69;;;17.78;44.22
52361;BME280;38294;42.966;1.608;2023-03-21T10:12:42;97359.97;;;17.26;45.39
52361;BME280;38294;42.966;1.608;2023-03-21T10:15:10;97365.63;;;18.02;43.95
52361;BME280;38294;42.966;1.608;2023-03-21T10:17:42;97350.66;;;17.86;44.36
52361;BME280;38294;42.966;1.608;2023-03-21T10:20:42;97351.66;;;18.16;43.73
52361;BME280;38294;42.966;1.608;2023-03-21T10:23:14;97357.34;;;17.99;43.91
52361;BME280;38294;42.966;1.608;2023-03-21T10:25:53;97347.72;;;18.17;43.36
52361;BME280;38294;42.966;1.608;2023-03-21T10:28:24;97344.69;;;17.94;43.66
52361;BME280;38294;42.966;1.608;2023-03-21T10:30:51;97338.03;;;18.43;42.72
52361;BME280;38294;42.966;1.608;2023-03-21T10:33:32;97341.25;;;18.38;42.85
52361;BME280;38294;42.966;1.608;2023-03-21T10:36:04;97346.78;;;18.38;42.18
52361;BME280;38294;42.966;1.608;2023-03-21T10:38:31;97346.59;;;18.08;42.31
52361;BME280;38294;42.966;1.608;2023-03-21T10:40:57;97342.78;;;18.39;42.09
52361;BME280;38294;42.966;1.608;2023-03-21T10:45:52;97343.31;;;18.78;41.44
52361;BME280;38294;42.966;1.608;2023-03-21T10:48:18;97345.81;;;18.62;42.00
52361;BME280;38294;42.966;1.608;2023-03-21T10:50:47;97346.75;;;18.42;41.65
52361;BME280;38294;42.966;1.608;2023-03-21T10:53:27;97341.06;;;18.63;40.88
52361;BME280;38294;42.966;1.608;2023-03-21T10:55:56;97345.50;;;17.88;42.15
52361;BME280;38294;42.966;1.608;2023-03-21T10:58:26;97343.53;;;18.50;41.32
52361;BME280;38294;42.966;1.608;2023-03-21T11:00:56;97336.53;;;18.83;41.48
52361;BME280;38294;42.966;1.608;2023-03-21T11:05:55;97319.91;;;18.79;41.62
52361;BME280;38294;42.966;1.608;2023-03-21T11:08:24;97326.59;;;18.85;42.60
52361;BME280;38294;42.966;1.608;2023-03-21T11:11:00;97319.91;;;19.54;41.61
52361;BME280;38294;42.966;1.608;2023-03-21T11:13:41;97321.66;;;19.00;41.67
52361;BME280;38294;42.966;1.608;2023-03-21T11:16:18;97323.16;;;19.79;40.64
52361;BME280;38294;42.966;1.608;2023-03-21T11:18:49;97327.94;;;20.09;40.86
52361;BME280;38294;42.966;1.608;2023-03-21T11:21:16;97325.84;;;19.56;40.63
52361;BME280;38294;42.966;1.608;2023-03-21T11:23:47;97319.69;;;20.02;39.97
52361;BME280;38294;42.966;1.608;2023-03-21T11:26:25;97315.63;;;20.07;39.72
52361;BME280;38294;42.966;1.608;2023-03-21T11:28:52;97314.56;;;19.97;40.39
52361;BME280;38294;42.966;1.608;2023-03-21T11:31:19;97312.69;;;19.60;41.23
52361;BME280;38294;42.966;1.608;2023-03-21T11:33:50;97316.06;;;20.05;40.81
52361;BME280;38294;42.966;1.608;2023-03-21T11:38:53;97303.94;;;19.62;41.12
52361;BME280;38294;42.966;1.608;2023-03-21T11:41:23;97307.38;;;19.73;38.92
52361;BME280;38294;42.966;1.608;2023-03-21T11:43:52;97309.63;;;19.81;38.18
52361;BME280;38294;42.966;1.608;2023-03-21T11:46:24;97297.84;;;19.40;36.31
52361;BME280;38294;42.966;1.608;2023-03-21T11:48:50;97300.28;;;19.34;38.70
52361;BME280;38294;42.966;1.608;2023-03-21T11:51:40;97301.56;;;19.26;38.44
52361;BME280;38294;42.966;1.608;2023-03-21T11:57:29;97304.66;;;19.96;36.67
52361;BME280;38294;42.966;1.608;2023-03-21T12:00:23;97300.22;;;19.72;37.25
52361;BME280;38294;42.966;1.608;2023-03-21T12:05:36;97294.69;;;19.99;37.17
52361;BME280;38294;42.966;1.608;2023-03-21T12:08:12;97286.84;;;19.63;37.69
52361;BME280;38294;42.966;1.608;2023-03-21T12:13:25;97282.00;;;20.24;37.24
52361;BME280;38294;42.966;1.608;2023-03-21T12:18:32;97287.84;;;20.33;35.61
52361;BME280;38294;42.966;1.608;2023-03-21T12:21:23;97282.22;;;20.83;36.10
52361;BME280;38294;42.966;1.608;2023-03-21T12:26:42;97264.13;;;20.72;36.02
52361;BME280;38294;42.966;1.608;2023-03-21T12:29:25;97266.00;;;20.55;36.64
52361;BME280;38294;42.966;1.608;2023-03-21T12:34:53;97273.50;;;20.35;37.23
52361;BME280;38294;42.966;1.608;2023-03-21T12:45:47;97263.81;;;20.16;39.95
52361;BME280;38294;42.966;1.608;2023-03-21T12:51:07;97257.50;;;20.85;37.98
52361;BME280;38294;42.966;1.608;2023-03-21T12:56:21;97265.16;;;20.35;40.27
52361;BME280;38294;42.966;1.608;2023-03-21T12:59:07;97264.16;;;20.22;41.18
52361;BME280;38294;42.966;1.608;2023-03-21T13:01:36;97245.88;;;20.48;41.04
52361;BME280;38294;42.966;1.608;2023-03-21T13:07:09;97246.66;;;20.48;40.71
52361;BME280;38294;42.966;1.608;2023-03-21T13:09:40;97249.00;;;20.26;40.50
52361;BME280;38294;42.966;1.608;2023-03-21T13:12:31;97232.09;;;20.83;39.30
52361;BME280;38294;42.966;1.608;2023-03-21T13:20:49;97230.03;;;20.18;41.00
52361;BME280;38294;42.966;1.608;2023-03-21T13:23:19;97227.56;;;20.70;40.08
52361;BME280;38294;42.966;1.608;2023-03-21T13:25:50;97221.53;;;20.94;39.42
52361;BME280;38294;42.966;1.608;2023-03-21T13:28:21;97219.63;;;20.68;38.84
52361;BME280;38294;42.966;1.608;2023-03-21T13:30:48;97224.19;;;21.02;37.74
52361;BME280;38294;42.966;1.608;2023-03-21T13:33:28;97220.03;;;20.70;37.56
52361;BME280;38294;42.966;1.608;2023-03-21T13:36:15;97222.56;;;20.61;37.76
52361;BME280;38294;42.966;1.608;2023-03-21T13:38:48;97213.28;;;20.21;38.51
52361;BME280;38294;42.966;1.608;2023-03-21T13:41:34;97204.75;;;20.35;38.65
52361;BME280;38294;42.966;1.608;2023-03-21T13:48:59;97208.06;;;20.50;37.56
52361;BME280;38294;42.966;1.608;2023-03-21T13:59:12;97209.75;;;20.67;36.42
52361;BME280;38294;42.966;1.608;2023-03-21T14:04:55;97202.53;;;20.70;36.11
52361;BME280;38294;42.966;1.608;2023-03-21T14:07:31;97197.25;;;20.95;35.45
52361;BME280;38294;42.966;1.608;2023-03-21T14:10:32;97198.84;;;20.96;34.95
52361;BME280;38294;42.966;1.608;2023-03-21T14:12:59;97196.38;;;20.12;35.73
52361;BME280;38294;42.966;1.608;2023-03-21T14:15:32;97196.34;;;20.59;34.49
52361;BME280;38294;42.966;1.608;2023-03-21T14:18:02;97191.72;;;20.52;35.32
52361;BME280;38294;42.966;1.608;2023-03-21T14:20:34;97191.44;;;20.20;36.19
52361;BME280;38294;42.966;1.608;2023-03-21T14:23:07;97199.41;;;20.68;35.77
52361;BME280;38294;42.966;1.608;2023-03-21T14:25:37;97204.47;;;20.92;35.54
52361;BME280;38294;42.966;1.608;2023-03-21T14:28:07;97200.31;;;20.61;35.72
52361;BME280;38294;42.966;1.608;2023-03-21T14:30:39;97189.91;;;20.42;36.11
52361;BME280;38294;42.966;1.608;2023-03-21T14:33:26;97190.88;;;20.09;37.42
52361;BME280;38294;42.966;1.608;2023-03-21T14:35:58;97202.16;;;20.21;37.44
52361;BME280;38294;42.966;1.608;2023-03-21T14:38:26;97194.66;;;20.18;37.22
52361;BME280;38294;42.966;1.608;2023-03-21T14:40:56;97197.53;;;19.88;37.67
52361;BME280;38294;42.966;1.608;2023-03-21T14:43:23;97196.25;;;20.42;36.31
52361;BME280;38294;42.966;1.608;2023-03-21T14:45:51;97198.09;;;20.26;35.91
52361;BME280;38294;42.966;1.608;2023-03-21T14:48:19;97201.47;;;20.40;35.91
52361;BME280;38294;42.966;1.608;2023-03-21T14:50:53;97192.09;;;20.31;36.06
52361;BME280;38294;42.966;1.608;2023-03-21T14:53:35;97187.41;;;20.24;36.04
52361;BME280;38294;42.966;1.608;2023-03-21T14:56:28;97188.44;;;20.11;35.82
52361;BME280;38294;42.966;1.608;2023-03-21T14:58:53;97183.41;;;20.29;35.99
52361;BME280;38294;42.966;1.608;2023-03-21T15:01:38;97185.56;;;20.41;35.58
52361;BME280;38294;42.966;1.608;2023-03-21T15:04:05;97184.47;;;20.35;35.72
52361;BME280;38294;42.966;1.608;2023-03-21T15:06:30;97175.22;;;20.41;35.24
52361;BME280;38294;42.966;1.608;2023-03-21T15:08:58;97172.66;;;20.51;34.46
52361;BME280;38294;42.966;1.608;2023-03-21T15:11:32;97172.16;;;20.56;34.32
52361;BME280;38294;42.966;1.608;2023-03-21T15:14:02;97173.03;;;20.72;34.62
52361;BME280;38294;42.966;1.608;2023-03-21T15:16:29;97169.91;;;20.70;34.99
52361;BME280;38294;42.966;1.608;2023-03-21T15:18:56;97170.84;;;20.64;35.13
52361;BME280;38294;42.966;1.608;2023-03-21T15:21:31;97158.72;;;20.31;35.90
52361;BME280;38294;42.966;1.608;2023-03-21T15:24:05;97164.09;;;20.41;35.26
52361;BME280;38294;42.966;1.608;2023-03-21T15:26:38;97157.44;;;20.35;34.10
52361;BME280;38294;42.966;1.608;2023-03-21T15:29:04;97164.50;;;20.83;33.63
52361;BME280;38294;42.966;1.608;2023-03-21T15:31:35;97154.78;;;20.28;33.63
52361;BME280;38294;42.966;1.608;2023-03-21T15:34:02;97165.88;;;20.05;34.49
52361;BME280;38294;42.966;1.608;2023-03-21T15:36:33;97153.13;;;20.08;35.49
52361;BME280;38294;42.966;1.608;2023-03-21T15:39:01;97150.53;;;20.43;34.98
52361;BME280;38294;42.966;1.608;2023-03-21T15:41:30;97153.56;;;20.72;34.77
52361;BME280;38294;42.966;1.608;2023-03-21T15:44:01;97153.56;;;20.29;34.48
52361;BME280;38294;42.966;1.608;2023-03-21T15:46:48;97148.53;;;20.44;34.18
52361;BME280;38294;42.966;1.608;2023-03-21T15:51:41;97157.13;;;19.57;37.65
52361;BME280;38294;42.966;1.608;2023-03-21T15:54:28;97149.19;;;19.55;37.04
52361;BME280;38294;42.966;1.608;2023-03-21T15:56:56;97140.13;;;19.78;36.69
52361;BME280;38294;42.966;1.608;2023-03-21T15:59:31;97154.09;;;19.98;37.00
52361;BME280;38294;42.966;1.608;2023-03-21T16:01:57;97144.81;;;19.81;37.59
52361;BME280;38294;42.966;1.608;2023-03-21T16:04:23;97148.84;;;19.53;39.61
52361;BME280;38294;42.966;1.608;2023-03-21T16:07:01;97146.91;;;19.77;39.95
52361;BME280;38294;42.966;1.608;2023-03-21T16:09:37;97147.16;;;19.59;40.22
52361;BME280;38294;42.966;1.608;2023-03-21T16:12:09;97156.78;;;19.78;40.36
52361;BME280;38294;42.966;1.608;2023-03-21T16:14:35;97158.28;;;19.29;41.76
52361;BME280;38294;42.966;1.608;2023-03-21T16:17:25;97154.00;;;19.24;42.30
52361;BME280;38294;42.966;1.608;2023-03-21T16:19:51;97156.28;;;19.29;42.06
52361;BME280;38294;42.966;1.608;2023-03-21T16:22:17;97155.25;;;19.20;42.47
52361;BME280;38294;42.966;1.608;2023-03-21T16:24:44;97157.59;;;19.52;41.97
52361;BME280;38294;42.966;1.608;2023-03-21T16:27:10;97155.25;;;19.50;42.13
52361;BME280;38294;42.966;1.608;2023-03-21T16:29:36;97143.47;;;19.39;42.06
52361;BME280;38294;42.966;1.608;2023-03-21T16:32:02;97154.06;;;19.51;41.81
52361;BME280;38294;42.966;1.608;2023-03-21T16:34:30;97147.22;;;19.56;42.26
52361;BME280;38294;42.966;1.608;2023-03-21T16:36:56;97144.81;;;19.58;42.63
52361;BME280;38294;42.966;1.608;2023-03-21T16:39:24;97148.41;;;19.28;42.99
52361;BME280;38294;42.966;1.608;2023-03-21T16:41:52;97151.09;;;19.05;43.33
52361;BME280;38294;42.966;1.608;2023-03-21T16:44:18;97154.97;;;19.11;43.48
52361;BME280;38294;42.966;1.608;2023-03-21T16:46:45;97164.22;;;18.70;44.52
52361;BME280;38294;42.966;1.608;2023-03-21T16:49:23;97162.69;;;18.62;44.05
52361;BME280;38294;42.966;1.608;2023-03-21T16:51:51;97158.66;;;18.70;43.94
52361;BME280;38294;42.966;1.608;2023-03-21T16:54:17;97156.59;;;18.74;43.53
52361;BME280;38294;42.966;1.608;2023-03-21T16:56:48;97162.25;;;18.67;44.15
52361;BME280;38294;42.966;1.608;2023-03-21T16:59:13;97166.28;;;18.22;45.10
52361;BME280;38294;42.966;1.608;2023-03-21T17:01:40;97163.72;;;18.38;45.23
52361;BME280;38294;42.966;1.608;2023-03-21T17:04:07;97159.41;;;18.33;45.26
52361;BME280;38294;42.966;1.608;2023-03-21T17:06:40;97163.72;;;18.38;45.51
52361;BME280;38294;42.966;1.608;2023-03-21T17:09:10;97165.53;;;18.14;45.71
52361;BME280;38294;42.966;1.608;2023-03-21T17:11:36;97174.72;;;18.04;45.85
52361;BME280;38294;42.966;1.608;2023-03-21T17:14:06;97181.84;;;18.09;45.86
52361;BME280;38294;42.966;1.608;2023-03-21T17:16:32;97188.03;;;17.75;46.09
52361;BME280;38294;42.966;1.608;2023-03-21T17:18:57;97195.78;;;17.32;46.95
52361;BME280;38294;42.966;1.608;2023-03-21T17:21:26;97204.53;;;17.27;47.23
52361;BME280;38294;42.966;1.608;2023-03-21T17:23:52;97193.03;;;17.29;47.36
52361;BME280;38294;42.966;1.608;2023-03-21T17:26:26;97202.06;;;17.47;47.37
52361;BME280;38294;42.966;1.608;2023-03-21T17:28:52;97204.22;;;17.11;48.60
52361;BME280;38294;42.966;1.608;2023-03-21T17:31:20;97202.66;;;17.03;49.47
52361;BME280;38294;42.966;1.608;2023-03-21T17:33:46;97213.84;;;16.71;50.44
52361;BME280;38294;42.966;1.608;2023-03-21T17:36:14;97219.00;;;16.48;51.35
52361;BME280;38294;42.966;1.608;2023-03-21T17:38:40;97209.13;;;16.58;51.39
52361;BME280;38294;42.966;1.608;2023-03-21T17:41:10;97215.41;;;16.76;51.25
52361;BME280;38294;42.966;1.608;2023-03-21T17:43:36;97213.84;;;16.64;51.59
52361;BME280;38294;42.966;1.608;2023-03-21T17:46:02;97217.81;;;16.42;52.28
52361;BME280;38294;42.966;1.608;2023-03-21T17:48:27;97219.41;;;16.43;52.72
52361;BME280;38294;42.966;1.608;2023-03-21T17:50:53;97226.91;;;16.53;52.36
52361;BME280;38294;42.966;1.608;2023-03-21T17:53:18;97222.19;;;16.43;52.88
52361;BME280;38294;42.966;1.608;2023-03-21T17:55:44;97223.38;;;16.24;53.23
52361;BME280;38294;42.966;1.608;2023-03-21T17:58:09;97216.66;;;16.36;53.03
52361;BME280;38294;42.966;1.608;2023-03-21T18:00:37;97226.91;;;16.43;53.17